sensor_id;sensor_type;location;lat;lon;timestamp;P1;durP1;ratioP1;P2;durP2;ratioP2
5333;SDS011;2689;50.954;7.116;2024-03-08T00:01:34;19.20;;;15.17;;
5333;SDS011;2689;50.954;7.116;2024-03-08T00:04:01;24.60;;;16.17;;
5333;SDS011;2689;50.954;7.116;2024-03-08T00:06:27;18.53;;;15.00;;
5333;SDS011;2689;50.954;7.116;2024-03-08T00:08:54;19.50;;;14.73;;
5333;SDS011;2689;50.954;7.116;2024-03-08T00:11:21;22.50;;;14.80;;
5333;SDS011;2689;50.954;7.116;2024-03-08T00:13:50;20.10;;;15.00;;
5333;SDS011;2689;50.954;7.116;2024-03-08T00:16:18;23.07;;;16.37;;
5333;SDS011;2689;50.954;7.116;2024-03-08T00:18:46;20.80;;;14.53;;
5333;SDS011;2689;50.954;7.116;2024-03-08T00:21:14;22.40;;;16.23;;
5333;SDS011;2689;50.954;7.116;2024-03-08T00:23:41;27.20;;;15.30;;
5333;SDS011;2689;50.954;7.116;2024-03-08T00:26:08;22.80;;;15.30;;
5333;SDS011;2689;50.954;7.116;2024-03-08T00:28:35;24.83;;;16.10;;
5333;SDS011;2689;50.954;7.116;2024-03-08T00:31:02;24.00;;;16.73;;
5333;SDS011;2689;50.954;7.116;2024-03-08T00:33:29;24.30;;;15.83;;
5333;SDS011;2689;50.954;7.116;2024-03-08T00:35:57;21.87;;;15.63;;
5333;SDS011;2689;50.954;7.116;2024-03-08T00:38:24;21.90;;;15.50;;
5333;SDS011;2689;50.954;7.116;2024-03-08T00:40:50;25.63;;;16.37;;
5333;SDS011;2689;50.954;7.116;2024-03-08T00:43:17;23.27;;;16.20;;
5333;SDS011;2689;50.954;7.116;2024-03-08T00:45:44;22.80;;;15.30;;
5333;SDS011;2689;50.954;7.116;2024-03-08T00:48:11;21.73;;;15.63;;
5333;SDS011;2689;50.954;7.116;2024-03-08T00:50:37;21.17;;;15.20;;
5333;SDS011;2689;50.954;7.116;2024-03-08T00:53:06;25.20;;;17.20;;
5333;SDS011;2689;50.954;7.116;2024-03-08T00:55:33;23.33;;;16.50;;
5333;SDS011;2689;50.954;7.116;2024-03-08T00:57:59;22.00;;;15.47;;
5333;SDS011;2689;50.954;7.116;2024-03-08T01:00:26;23.70;;;15.87;;
5333;SDS011;2689;50.954;7.116;2024-03-08T01:02:53;22.00;;;16.33;;
5333;SDS011;2689;50.954;7.116;2024-03-08T01:05:20;23.30;;;17.20;;
5333;SDS011;2689;50.954;7.116;2024-03-08T01:07:48;21.27;;;16.07;;
5333;SDS011;2689;50.954;7.116;2024-03-08T01:10:16;20.33;;;15.27;;
5333;SDS011;2689;50.954;7.116;2024-03-08T01:12:43;22.90;;;15.50;;
5333;SDS011;2689;50.954;7.116;2024-03-08T01:15:10;27.57;;;17.50;;
5333;SDS011;2689;50.954;7.116;2024-03-08T01:17:37;24.63;;;16.17;;
5333;SDS011;2689;50.954;7.116;2024-03-08T01:20:04;22.47;;;15.83;;
5333;SDS011;2689;50.954;7.116;2024-03-08T01:22:32;19.47;;;15.07;;
5333;SDS011;2689;50.954;7.116;2024-03-08T01:24:59;22.50;;;16.77;;
5333;SDS011;2689;50.954;7.116;2024-03-08T01:27:27;23.53;;;16.20;;
5333;SDS011;2689;50.954;7.116;2024-03-08T01:29:54;26.77;;;16.50;;
5333;SDS011;2689;50.954;7.116;2024-03-08T01:32:20;23.30;;;15.90;;
5333;SDS011;2689;50.954;7.116;2024-03-08T01:34:48;24.13;;;16.50;;
5333;SDS011;2689;50.954;7.116;2024-03-08T01:37:15;25.70;;;16.60;;
5333;SDS011;2689;50.954;7.116;2024-03-08T01:39:42;25.13;;;17.40;;
5333;SDS011;2689;50.954;7.116;2024-03-08T01:42:09;24.10;;;16.10;;
5333;SDS011;2689;50.954;7.116;2024-03-08T01:44:38;26.83;;;18.57;;
5333;SDS011;2689;50.954;7.116;2024-03-08T01:47:05;24.77;;;17.57;;
5333;SDS011;2689;50.954;7.116;2024-03-08T01:49:33;28.10;;;16.70;;
5333;SDS011;2689;50.954;7.116;2024-03-08T01:52:00;27.80;;;17.20;;
5333;SDS011;2689;50.954;7.116;2024-03-08T01:54:27;24.33;;;16.63;;
5333;SDS011;2689;50.954;7.116;2024-03-08T01:56:55;26.27;;;17.23;;
5333;SDS011;2689;50.954;7.116;2024-03-08T01:59:23;22.07;;;15.57;;
5333;SDS011;2689;50.954;7.116;2024-03-08T02:01:53;21.43;;;15.00;;
5333;SDS011;2689;50.954;7.116;2024-03-08T02:04:23;25.37;;;15.87;;
5333;SDS011;2689;50.954;7.116;2024-03-08T02:06:50;23.53;;;17.17;;
5333;SDS011;2689;50.954;7.116;2024-03-08T02:09:16;23.10;;;16.70;;
5333;SDS011;2689;50.954;7.116;2024-03-08T02:11:43;23.37;;;16.70;;
5333;SDS011;2689;50.954;7.116;2024-03-08T02:14:11;26.70;;;17.57;;
5333;SDS011;2689;50.954;7.116;2024-03-08T02:16:37;26.70;;;16.77;;
5333;SDS011;2689;50.954;7.116;2024-03-08T02:19:05;22.50;;;16.50;;
5333;SDS011;2689;50.954;7.116;2024-03-08T02:21:36;24.53;;;17.43;;
5333;SDS011;2689;50.954;7.116;2024-03-08T02:24:03;21.07;;;16.00;;
5333;SDS011;2689;50.954;7.116;2024-03-08T02:26:30;26.00;;;17.07;;
5333;SDS011;2689;50.954;7.116;2024-03-08T02:28:57;23.70;;;16.67;;
5333;SDS011;2689;50.954;7.116;2024-03-08T02:31:24;27.20;;;17.37;;
5333;SDS011;2689;50.954;7.116;2024-03-08T02:33:51;23.80;;;17.43;;
5333;SDS011;2689;50.954;7.116;2024-03-08T02:36:17;22.77;;;15.20;;
5333;SDS011;2689;50.954;7.116;2024-03-08T02:38:45;23.80;;;16.80;;
5333;SDS011;2689;50.954;7.116;2024-03-08T02:41:12;20.50;;;15.93;;
5333;SDS011;2689;50.954;7.116;2024-03-08T02:43:39;26.50;;;17.23;;
5333;SDS011;2689;50.954;7.116;2024-03-08T02:46:06;27.80;;;18.40;;
5333;SDS011;2689;50.954;7.116;2024-03-08T02:48:32;24.17;;;17.50;;
5333;SDS011;2689;50.954;7.116;2024-03-08T02:51:00;24.20;;;16.77;;
5333;SDS011;2689;50.954;7.116;2024-03-08T02:53:27;24.10;;;17.20;;
5333;SDS011;2689;50.954;7.116;2024-03-08T02:55:55;23.87;;;17.77;;
5333;SDS011;2689;50.954;7.116;2024-03-08T02:58:22;25.83;;;16.87;;
5333;SDS011;2689;50.954;7.116;2024-03-08T03:00:49;24.67;;;17.33;;
5333;SDS011;2689;50.954;7.116;2024-03-08T03:03:16;25.77;;;18.17;;
5333;SDS011;2689;50.954;7.116;2024-03-08T03:05:42;26.60;;;16.63;;
5333;SDS011;2689;50.954;7.116;2024-03-08T03:08:10;23.87;;;16.40;;
5333;SDS011;2689;50.954;7.116;2024-03-08T03:10:37;24.30;;;16.13;;
5333;SDS011;2689;50.954;7.116;2024-03-08T03:13:05;24.13;;;16.17;;
5333;SDS011;2689;50.954;7.116;2024-03-08T03:15:31;22.97;;;16.97;;
5333;SDS011;2689;50.954;7.116;2024-03-08T03:17:59;26.17;;;16.37;;
5333;SDS011;2689;50.954;7.116;2024-03-08T03:20:26;24.67;;;16.97;;
5333;SDS011;2689;50.954;7.116;2024-03-08T03:22:57;21.90;;;17.20;;
5333;SDS011;2689;50.954;7.116;2024-03-08T03:25:26;25.70;;;16.53;;
5333;SDS011;2689;50.954;7.116;2024-03-08T03:27:58;21.30;;;16.30;;
5333;SDS011;2689;50.954;7.116;2024-03-08T03:30:26;23.53;;;16.20;;
5333;SDS011;2689;50.954;7.116;2024-03-08T03:32:58;23.10;;;16.93;;
5333;SDS011;2689;50.954;7.116;2024-03-08T03:35:25;25.60;;;17.53;;
5333;SDS011;2689;50.954;7.116;2024-03-08T03:37:52;27.33;;;17.53;;
5333;SDS011;2689;50.954;7.116;2024-03-08T03:40:27;23.10;;;15.97;;
5333;SDS011;2689;50.954;7.116;2024-03-08T03:42:54;23.33;;;16.70;;
5333;SDS011;2689;50.954;7.116;2024-03-08T03:45:21;23.53;;;16.40;;
5333;SDS011;2689;50.954;7.116;2024-03-08T03:47:49;22.50;;;16.47;;
5333;SDS011;2689;50.954;7.116;2024-03-08T03:50:16;21.40;;;15.93;;
5333;SDS011;2689;50.954;7.116;2024-03-08T03:52:44;28.10;;;17.87;;
5333;SDS011;2689;50.954;7.116;2024-03-08T03:55:11;26.70;;;16.97;;
5333;SDS011;2689;50.954;7.116;2024-03-08T03:57:38;23.50;;;16.83;;
5333;SDS011;2689;50.954;7.116;2024-03-08T04:00:05;25.60;;;16.93;;
5333;SDS011;2689;50.954;7.116;2024-03-08T04:02:35;26.97;;;17.00;;
5333;SDS011;2689;50.954;7.116;2024-03-08T04:05:05;25.37;;;16.37;;
5333;SDS011;2689;50.954;7.116;2024-03-08T04:07:33;23.73;;;16.07;;
5333;SDS011;2689;50.954;7.116;2024-03-08T04:10:00;25.83;;;17.30;;
5333;SDS011;2689;50.954;7.116;2024-03-08T04:12:27;24.50;;;15.60;;
5333;SDS011;2689;50.954;7.116;2024-03-08T04:14:55;25.77;;;16.37;;
5333;SDS011;2689;50.954;7.116;2024-03-08T04:17:22;29.00;;;17.27;;
5333;SDS011;2689;50.954;7.116;2024-03-08T04:19:50;29.97;;;16.83;;
5333;SDS011;2689;50.954;7.116;2024-03-08T04:22:18;24.67;;;16.87;;
5333;SDS011;2689;50.954;7.116;2024-03-08T04:24:46;29.00;;;17.13;;
5333;SDS011;2689;50.954;7.116;2024-03-08T04:27:12;24.13;;;17.17;;
5333;SDS011;2689;50.954;7.116;2024-03-08T04:29:40;29.30;;;19.03;;
5333;SDS011;2689;50.954;7.116;2024-03-08T04:32:07;26.23;;;17.10;;
5333;SDS011;2689;50.954;7.116;2024-03-08T04:34:34;26.87;;;17.33;;
5333;SDS011;2689;50.954;7.116;2024-03-08T04:37:01;26.20;;;16.93;;
5333;SDS011;2689;50.954;7.116;2024-03-08T04:39:31;22.90;;;15.77;;
5333;SDS011;2689;50.954;7.116;2024-03-08T04:41:58;28.47;;;18.10;;
5333;SDS011;2689;50.954;7.116;2024-03-08T04:44:28;30.53;;;17.70;;
5333;SDS011;2689;50.954;7.116;2024-03-08T04:46:55;22.53;;;16.37;;
5333;SDS011;2689;50.954;7.116;2024-03-08T04:49:21;23.90;;;17.43;;
5333;SDS011;2689;50.954;7.116;2024-03-08T04:51:48;28.13;;;17.40;;
5333;SDS011;2689;50.954;7.116;2024-03-08T04:54:15;24.43;;;17.40;;
5333;SDS011;2689;50.954;7.116;2024-03-08T04:56:43;27.30;;;16.97;;
5333;SDS011;2689;50.954;7.116;2024-03-08T04:59:11;27.43;;;16.87;;
5333;SDS011;2689;50.954;7.116;2024-03-08T05:01:38;26.73;;;16.67;;
5333;SDS011;2689;50.954;7.116;2024-03-08T05:04:05;27.47;;;18.37;;
5333;SDS011;2689;50.954;7.116;2024-03-08T05:06:32;26.87;;;18.33;;
5333;SDS011;2689;50.954;7.116;2024-03-08T05:08:59;26.97;;;18.17;;
5333;SDS011;2689;50.954;7.116;2024-03-08T05:11:25;27.87;;;17.53;;
5333;SDS011;2689;50.954;7.116;2024-03-08T05:13:54;26.57;;;17.70;;
5333;SDS011;2689;50.954;7.116;2024-03-08T05:16:21;30.43;;;18.67;;
5333;SDS011;2689;50.954;7.116;2024-03-08T05:18:49;27.97;;;17.57;;
5333;SDS011;2689;50.954;7.116;2024-03-08T05:21:16;24.63;;;17.97;;
5333;SDS011;2689;50.954;7.116;2024-03-08T05:23:45;27.10;;;17.40;;
5333;SDS011;2689;50.954;7.116;2024-03-08T05:26:12;27.83;;;18.20;;
5333;SDS011;2689;50.954;7.116;2024-03-08T05:28:39;33.00;;;19.77;;
5333;SDS011;2689;50.954;7.116;2024-03-08T05:31:07;28.30;;;18.30;;
5333;SDS011;2689;50.954;7.116;2024-03-08T05:33:34;26.37;;;17.60;;
5333;SDS011;2689;50.954;7.116;2024-03-08T05:36:01;26.90;;;19.07;;
5333;SDS011;2689;50.954;7.116;2024-03-08T05:38:28;29.47;;;17.53;;
5333;SDS011;2689;50.954;7.116;2024-03-08T05:40:55;27.40;;;18.20;;
5333;SDS011;2689;50.954;7.116;2024-03-08T05:43:22;28.80;;;18.00;;
5333;SDS011;2689;50.954;7.116;2024-03-08T05:45:49;25.50;;;17.70;;
5333;SDS011;2689;50.954;7.116;2024-03-08T05:48:18;33.40;;;19.63;;
5333;SDS011;2689;50.954;7.116;2024-03-08T05:50:45;27.40;;;18.53;;
5333;SDS011;2689;50.954;7.116;2024-03-08T05:53:11;31.33;;;18.13;;
5333;SDS011;2689;50.954;7.116;2024-03-08T05:55:38;34.43;;;18.23;;
5333;SDS011;2689;50.954;7.116;2024-03-08T05:58:05;26.60;;;17.40;;
5333;SDS011;2689;50.954;7.116;2024-03-08T06:00:33;28.30;;;16.70;;
5333;SDS011;2689;50.954;7.116;2024-03-08T06:03:01;28.17;;;17.90;;
5333;SDS011;2689;50.954;7.116;2024-03-08T06:05:29;30.03;;;18.67;;
5333;SDS011;2689;50.954;7.116;2024-03-08T06:07:56;28.57;;;18.00;;
5333;SDS011;2689;50.954;7.116;2024-03-08T06:10:23;31.60;;;18.83;;
5333;SDS011;2689;50.954;7.116;2024-03-08T06:12:50;30.07;;;19.03;;
5333;SDS011;2689;50.954;7.116;2024-03-08T06:15:17;25.67;;;17.27;;
5333;SDS011;2689;50.954;7.116;2024-03-08T06:17:46;31.40;;;20.23;;
5333;SDS011;2689;50.954;7.116;2024-03-08T06:20:12;28.80;;;19.47;;
5333;SDS011;2689;50.954;7.116;2024-03-08T06:22:41;30.60;;;18.60;;
5333;SDS011;2689;50.954;7.116;2024-03-08T06:25:10;30.53;;;18.73;;
5333;SDS011;2689;50.954;7.116;2024-03-08T06:27:39;32.17;;;19.40;;
5333;SDS011;2689;50.954;7.116;2024-03-08T06:30:07;24.53;;;17.40;;
5333;SDS011;2689;50.954;7.116;2024-03-08T06:32:35;30.97;;;20.30;;
5333;SDS011;2689;50.954;7.116;2024-03-08T06:35:02;32.80;;;20.13;;
5333;SDS011;2689;50.954;7.116;2024-03-08T06:37:31;27.13;;;20.07;;
5333;SDS011;2689;50.954;7.116;2024-03-08T06:39:59;25.83;;;18.53;;
5333;SDS011;2689;50.954;7.116;2024-03-08T06:42:27;32.80;;;19.30;;
5333;SDS011;2689;50.954;7.116;2024-03-08T06:44:54;27.70;;;20.00;;
5333;SDS011;2689;50.954;7.116;2024-03-08T06:47:25;27.43;;;18.67;;
5333;SDS011;2689;50.954;7.116;2024-03-08T06:49:51;28.93;;;19.03;;
5333;SDS011;2689;50.954;7.116;2024-03-08T06:52:18;28.73;;;20.23;;
5333;SDS011;2689;50.954;7.116;2024-03-08T06:54:45;30.93;;;20.47;;
5333;SDS011;2689;50.954;7.116;2024-03-08T06:57:13;29.23;;;19.10;;
5333;SDS011;2689;50.954;7.116;2024-03-08T06:59:41;32.40;;;20.07;;
5333;SDS011;2689;50.954;7.116;2024-03-08T07:02:08;29.20;;;20.10;;
5333;SDS011;2689;50.954;7.116;2024-03-08T07:04:35;27.50;;;18.63;;
5333;SDS011;2689;50.954;7.116;2024-03-08T07:07:03;25.03;;;17.90;;
5333;SDS011;2689;50.954;7.116;2024-03-08T07:09:30;26.50;;;17.87;;
5333;SDS011;2689;50.954;7.116;2024-03-08T07:11:57;32.23;;;19.00;;
5333;SDS011;2689;50.954;7.116;2024-03-08T07:14:25;25.07;;;18.23;;
5333;SDS011;2689;50.954;7.116;2024-03-08T07:16:52;29.23;;;19.57;;
5333;SDS011;2689;50.954;7.116;2024-03-08T07:19:19;28.70;;;18.33;;
5333;SDS011;2689;50.954;7.116;2024-03-08T07:21:46;25.70;;;19.27;;
5333;SDS011;2689;50.954;7.116;2024-03-08T07:24:13;27.43;;;19.00;;
5333;SDS011;2689;50.954;7.116;2024-03-08T07:26:58;27.03;;;17.23;;
5333;SDS011;2689;50.954;7.116;2024-03-08T07:29:26;27.97;;;19.43;;
5333;SDS011;2689;50.954;7.116;2024-03-08T07:31:55;27.97;;;17.40;;
5333;SDS011;2689;50.954;7.116;2024-03-08T07:34:36;28.30;;;18.17;;
5333;SDS011;2689;50.954;7.116;2024-03-08T07:37:04;29.27;;;20.10;;
5333;SDS011;2689;50.954;7.116;2024-03-08T07:39:35;25.30;;;17.67;;
5333;SDS011;2689;50.954;7.116;2024-03-08T07:42:03;34.37;;;18.87;;
5333;SDS011;2689;50.954;7.116;2024-03-08T07:44:31;28.20;;;18.50;;
5333;SDS011;2689;50.954;7.116;2024-03-08T07:49:55;26.00;;;18.40;;
5333;SDS011;2689;50.954;7.116;2024-03-08T07:52:22;26.17;;;17.30;;
5333;SDS011;2689;50.954;7.116;2024-03-08T07:54:49;25.93;;;18.23;;
5333;SDS011;2689;50.954;7.116;2024-03-08T07:57:16;27.00;;;17.47;;
5333;SDS011;2689;50.954;7.116;2024-03-08T07:59:44;24.37;;;16.93;;
5333;SDS011;2689;50.954;7.116;2024-03-08T08:02:11;24.27;;;16.40;;
5333;SDS011;2689;50.954;7.116;2024-03-08T08:04:38;22.00;;;15.20;;
5333;SDS011;2689;50.954;7.116;2024-03-08T08:07:04;22.87;;;16.37;;
5333;SDS011;2689;50.954;7.116;2024-03-08T08:09:32;19.77;;;15.53;;
5333;SDS011;2689;50.954;7.116;2024-03-08T08:12:00;21.10;;;15.87;;
5333;SDS011;2689;50.954;7.116;2024-03-08T08:14:28;22.67;;;16.40;;
5333;SDS011;2689;50.954;7.116;2024-03-08T08:16:57;20.73;;;16.30;;
5333;SDS011;2689;50.954;7.116;2024-03-08T08:19:28;20.10;;;15.43;;
5333;SDS011;2689;50.954;7.116;2024-03-08T08:21:55;19.33;;;16.40;;
5333;SDS011;2689;50.954;7.116;2024-03-08T08:24:22;24.93;;;16.03;;
5333;SDS011;2689;50.954;7.116;2024-03-08T08:26:50;23.20;;;17.07;;
5333;SDS011;2689;50.954;7.116;2024-03-08T08:29:17;21.87;;;15.77;;
5333;SDS011;2689;50.954;7.116;2024-03-08T08:31:45;20.30;;;15.47;;
5333;SDS011;2689;50.954;7.116;2024-03-08T08:34:13;18.07;;;14.77;;
5333;SDS011;2689;50.954;7.116;2024-03-08T08:36:40;20.23;;;15.87;;
5333;SDS011;2689;50.954;7.116;2024-03-08T08:39:07;23.40;;;16.30;;
5333;SDS011;2689;50.954;7.116;2024-03-08T08:41:38;19.70;;;15.20;;
5333;SDS011;2689;50.954;7.116;2024-03-08T08:44:06;20.47;;;15.70;;
5333;SDS011;2689;50.954;7.116;2024-03-08T08:46:35;19.97;;;15.60;;
5333;SDS011;2689;50.954;7.116;2024-03-08T08:49:02;19.20;;;14.90;;
5333;SDS011;2689;50.954;7.116;2024-03-08T08:51:32;17.70;;;14.57;;
5333;SDS011;2689;50.954;7.116;2024-03-08T08:53:59;19.37;;;14.87;;
5333;SDS011;2689;50.954;7.116;2024-03-08T08:56:26;16.77;;;14.57;;
5333;SDS011;2689;50.954;7.116;2024-03-08T08:58:53;15.83;;;14.10;;
5333;SDS011;2689;50.954;7.116;2024-03-08T09:01:22;19.37;;;14.73;;
5333;SDS011;2689;50.954;7.116;2024-03-08T09:03:49;17.90;;;14.87;;
5333;SDS011;2689;50.954;7.116;2024-03-08T09:06:19;17.77;;;14.63;;
5333;SDS011;2689;50.954;7.116;2024-03-08T09:08:47;16.90;;;14.43;;
5333;SDS011;2689;50.954;7.116;2024-03-08T09:11:14;15.87;;;13.70;;
5333;SDS011;2689;50.954;7.116;2024-03-08T09:13:43;17.93;;;13.77;;
5333;SDS011;2689;50.954;7.116;2024-03-08T09:16:11;16.10;;;13.90;;
5333;SDS011;2689;50.954;7.116;2024-03-08T09:18:37;17.17;;;14.67;;
5333;SDS011;2689;50.954;7.116;2024-03-08T09:21:04;18.03;;;13.67;;
5333;SDS011;2689;50.954;7.116;2024-03-08T09:23:34;17.00;;;14.07;;
5333;SDS011;2689;50.954;7.116;2024-03-08T09:26:03;17.07;;;14.80;;
5333;SDS011;2689;50.954;7.116;2024-03-08T09:28:30;15.00;;;13.10;;
5333;SDS011;2689;50.954;7.116;2024-03-08T09:30:57;17.67;;;14.30;;
5333;SDS011;2689;50.954;7.116;2024-03-08T09:33:24;17.83;;;14.40;;
5333;SDS011;2689;50.954;7.116;2024-03-08T09:35:53;19.67;;;14.60;;
5333;SDS011;2689;50.954;7.116;2024-03-08T09:38:24;17.80;;;14.60;;
5333;SDS011;2689;50.954;7.116;2024-03-08T09:40:51;17.17;;;13.70;;
5333;SDS011;2689;50.954;7.116;2024-03-08T09:43:20;16.57;;;13.80;;
5333;SDS011;2689;50.954;7.116;2024-03-08T09:45:46;16.53;;;14.47;;
5333;SDS011;2689;50.954;7.116;2024-03-08T09:48:16;17.83;;;14.10;;
5333;SDS011;2689;50.954;7.116;2024-03-08T09:50:45;16.40;;;13.00;;
5333;SDS011;2689;50.954;7.116;2024-03-08T09:53:13;14.87;;;13.20;;
5333;SDS011;2689;50.954;7.116;2024-03-08T09:55:41;17.03;;;14.00;;
5333;SDS011;2689;50.954;7.116;2024-03-08T09:58:11;14.47;;;12.50;;
5333;SDS011;2689;50.954;7.116;2024-03-08T10:01:17;15.57;;;12.17;;
5333;SDS011;2689;50.954;7.116;2024-03-08T10:03:46;17.70;;;13.73;;
5333;SDS011;2689;50.954;7.116;2024-03-08T10:06:15;15.90;;;13.10;;
5333;SDS011;2689;50.954;7.116;2024-03-08T10:08:42;17.23;;;13.47;;
5333;SDS011;2689;50.954;7.116;2024-03-08T10:11:10;17.17;;;13.03;;
5333;SDS011;2689;50.954;7.116;2024-03-08T10:13:37;21.10;;;17.43;;
5333;SDS011;2689;50.954;7.116;2024-03-08T10:16:06;16.30;;;13.90;;
5333;SDS011;2689;50.954;7.116;2024-03-08T10:18:35;13.93;;;12.07;;
5333;SDS011;2689;50.954;7.116;2024-03-08T10:21:02;15.83;;;12.53;;
5333;SDS011;2689;50.954;7.116;2024-03-08T10:23:32;15.70;;;12.30;;
5333;SDS011;2689;50.954;7.116;2024-03-08T10:26:12;14.50;;;12.77;;
5333;SDS011;2689;50.954;7.116;2024-03-08T10:28:41;16.27;;;12.70;;
5333;SDS011;2689;50.954;7.116;2024-03-08T10:31:08;15.50;;;12.20;;
5333;SDS011;2689;50.954;7.116;2024-03-08T10:33:37;12.83;;;11.20;;
5333;SDS011;2689;50.954;7.116;2024-03-08T10:36:05;14.30;;;12.23;;
5333;SDS011;2689;50.954;7.116;2024-03-08T10:38:35;14.40;;;11.60;;
5333;SDS011;2689;50.954;7.116;2024-03-08T10:41:05;14.17;;;11.93;;
5333;SDS011;2689;50.954;7.116;2024-03-08T10:43:36;14.90;;;12.53;;
5333;SDS011;2689;50.954;7.116;2024-03-08T10:46:15;12.90;;;10.63;;
5333;SDS011;2689;50.954;7.116;2024-03-08T10:48:53;14.43;;;10.47;;
5333;SDS011;2689;50.954;7.116;2024-03-08T10:51:24;14.13;;;11.30;;
5333;SDS011;2689;50.954;7.116;2024-03-08T10:53:52;11.77;;;10.40;;
5333;SDS011;2689;50.954;7.116;2024-03-08T10:56:19;12.70;;;10.03;;
5333;SDS011;2689;50.954;7.116;2024-03-08T10:58:47;11.53;;;9.73;;
5333;SDS011;2689;50.954;7.116;2024-03-08T11:01:15;14.63;;;9.63;;
5333;SDS011;2689;50.954;7.116;2024-03-08T11:03:45;14.17;;;10.27;;
5333;SDS011;2689;50.954;7.116;2024-03-08T11:06:15;12.40;;;10.13;;
5333;SDS011;2689;50.954;7.116;2024-03-08T11:08:43;14.03;;;10.27;;
5333;SDS011;2689;50.954;7.116;2024-03-08T11:11:23;13.60;;;9.97;;
5333;SDS011;2689;50.954;7.116;2024-03-08T11:13:56;11.30;;;9.20;;
5333;SDS011;2689;50.954;7.116;2024-03-08T11:16:39;10.47;;;9.37;;
5333;SDS011;2689;50.954;7.116;2024-03-08T11:19:23;11.83;;;10.00;;
5333;SDS011;2689;50.954;7.116;2024-03-08T11:21:58;11.50;;;9.30;;
5333;SDS011;2689;50.954;7.116;2024-03-08T11:24:26;12.43;;;9.13;;
5333;SDS011;2689;50.954;7.116;2024-03-08T11:26:57;11.57;;;9.47;;
5333;SDS011;2689;50.954;7.116;2024-03-08T11:29:35;11.07;;;9.23;;
5333;SDS011;2689;50.954;7.116;2024-03-08T11:32:05;11.17;;;9.17;;
5333;SDS011;2689;50.954;7.116;2024-03-08T11:34:35;10.80;;;8.57;;
5333;SDS011;2689;50.954;7.116;2024-03-08T11:37:04;10.57;;;8.40;;
5333;SDS011;2689;50.954;7.116;2024-03-08T11:39:35;12.60;;;9.17;;
5333;SDS011;2689;50.954;7.116;2024-03-08T11:42:05;10.17;;;8.27;;
5333;SDS011;2689;50.954;7.116;2024-03-08T11:44:33;11.53;;;9.80;;
5333;SDS011;2689;50.954;7.116;2024-03-08T11:47:01;12.20;;;8.90;;
5333;SDS011;2689;50.954;7.116;2024-03-08T11:49:31;9.97;;;8.47;;
5333;SDS011;2689;50.954;7.116;2024-03-08T11:51:58;10.40;;;8.63;;
5333;SDS011;2689;50.954;7.116;2024-03-08T11:54:29;8.93;;;8.03;;
5333;SDS011;2689;50.954;7.116;2024-03-08T11:56:57;9.53;;;7.63;;
5333;SDS011;2689;50.954;7.116;2024-03-08T11:59:26;10.67;;;8.00;;
5333;SDS011;2689;50.954;7.116;2024-03-08T12:01:59;10.10;;;8.30;;
5333;SDS011;2689;50.954;7.116;2024-03-08T12:04:27;10.23;;;8.80;;
5333;SDS011;2689;50.954;7.116;2024-03-08T12:06:54;11.30;;;8.40;;
5333;SDS011;2689;50.954;7.116;2024-03-08T12:09:21;10.77;;;9.07;;
5333;SDS011;2689;50.954;7.116;2024-03-08T12:11:49;10.10;;;8.60;;
5333;SDS011;2689;50.954;7.116;2024-03-08T12:14:16;10.27;;;8.10;;
5333;SDS011;2689;50.954;7.116;2024-03-08T12:16:44;11.57;;;9.73;;
5333;SDS011;2689;50.954;7.116;2024-03-08T12:19:11;10.30;;;9.00;;
5333;SDS011;2689;50.954;7.116;2024-03-08T12:21:38;10.60;;;8.67;;
5333;SDS011;2689;50.954;7.116;2024-03-08T12:24:13;10.73;;;8.63;;
5333;SDS011;2689;50.954;7.116;2024-03-08T12:26:44;10.53;;;9.10;;
5333;SDS011;2689;50.954;7.116;2024-03-08T12:29:18;11.13;;;9.10;;
5333;SDS011;2689;50.954;7.116;2024-03-08T12:31:47;10.53;;;9.03;;
5333;SDS011;2689;50.954;7.116;2024-03-08T12:34:16;9.83;;;8.00;;
5333;SDS011;2689;50.954;7.116;2024-03-08T12:36:44;11.33;;;8.83;;
5333;SDS011;2689;50.954;7.116;2024-03-08T12:39:13;12.60;;;9.60;;
5333;SDS011;2689;50.954;7.116;2024-03-08T12:41:43;9.63;;;7.67;;
5333;SDS011;2689;50.954;7.116;2024-03-08T12:44:11;9.37;;;7.50;;
5333;SDS011;2689;50.954;7.116;2024-03-08T12:46:40;16.30;;;8.90;;
5333;SDS011;2689;50.954;7.116;2024-03-08T12:49:10;10.70;;;8.13;;
5333;SDS011;2689;50.954;7.116;2024-03-08T12:51:37;13.10;;;9.30;;
5333;SDS011;2689;50.954;7.116;2024-03-08T12:54:06;12.27;;;10.30;;
5333;SDS011;2689;50.954;7.116;2024-03-08T12:56:34;9.80;;;8.80;;
5333;SDS011;2689;50.954;7.116;2024-03-08T12:59:03;11.67;;;8.67;;
5333;SDS011;2689;50.954;7.116;2024-03-08T13:01:31;9.17;;;7.80;;
5333;SDS011;2689;50.954;7.116;2024-03-08T13:04:00;12.10;;;8.80;;
5333;SDS011;2689;50.954;7.116;2024-03-08T13:06:28;10.60;;;8.20;;
5333;SDS011;2689;50.954;7.116;2024-03-08T13:08:56;10.20;;;8.30;;
5333;SDS011;2689;50.954;7.116;2024-03-08T13:11:23;10.70;;;8.00;;
5333;SDS011;2689;50.954;7.116;2024-03-08T13:13:51;11.50;;;8.40;;
5333;SDS011;2689;50.954;7.116;2024-03-08T13:16:18;9.73;;;7.47;;
5333;SDS011;2689;50.954;7.116;2024-03-08T13:18:46;13.50;;;8.40;;
5333;SDS011;2689;50.954;7.116;2024-03-08T13:21:16;9.93;;;7.80;;
5333;SDS011;2689;50.954;7.116;2024-03-08T13:23:48;11.00;;;9.10;;
5333;SDS011;2689;50.954;7.116;2024-03-08T13:26:18;10.50;;;7.90;;
5333;SDS011;2689;50.954;7.116;2024-03-08T13:28:45;10.23;;;7.77;;
5333;SDS011;2689;50.954;7.116;2024-03-08T13:31:13;10.00;;;8.40;;
5333;SDS011;2689;50.954;7.116;2024-03-08T13:33:41;13.53;;;8.17;;
5333;SDS011;2689;50.954;7.116;2024-03-08T13:36:10;10.70;;;8.27;;
5333;SDS011;2689;50.954;7.116;2024-03-08T13:38:41;11.37;;;9.10;;
5333;SDS011;2689;50.954;7.116;2024-03-08T13:41:09;10.70;;;8.63;;
5333;SDS011;2689;50.954;7.116;2024-03-08T13:43:39;12.43;;;9.17;;
5333;SDS011;2689;50.954;7.116;2024-03-08T13:46:06;11.43;;;9.23;;
5333;SDS011;2689;50.954;7.116;2024-03-08T13:48:35;12.03;;;9.13;;
5333;SDS011;2689;50.954;7.116;2024-03-08T13:51:03;10.10;;;8.00;;
5333;SDS011;2689;50.954;7.116;2024-03-08T13:53:31;10.00;;;8.37;;
5333;SDS011;2689;50.954;7.116;2024-03-08T13:56:01;10.00;;;8.43;;
5333;SDS011;2689;50.954;7.116;2024-03-08T13:58:28;12.03;;;8.47;;
5333;SDS011;2689;50.954;7.116;2024-03-08T14:00:55;10.47;;;8.40;;
5333;SDS011;2689;50.954;7.116;2024-03-08T14:03:21;12.30;;;9.30;;
5333;SDS011;2689;50.954;7.116;2024-03-08T14:05:49;10.30;;;9.13;;
5333;SDS011;2689;50.954;7.116;2024-03-08T14:08:16;11.30;;;9.23;;
5333;SDS011;2689;50.954;7.116;2024-03-08T14:10:43;15.30;;;10.70;;
5333;SDS011;2689;50.954;7.116;2024-03-08T14:13:13;13.77;;;9.80;;
5333;SDS011;2689;50.954;7.116;2024-03-08T14:15:41;12.00;;;9.97;;
5333;SDS011;2689;50.954;7.116;2024-03-08T14:18:11;14.17;;;10.70;;
5333;SDS011;2689;50.954;7.116;2024-03-08T14:20:38;13.00;;;10.07;;
5333;SDS011;2689;50.954;7.116;2024-03-08T14:23:05;12.73;;;10.93;;
5333;SDS011;2689;50.954;7.116;2024-03-08T14:25:33;16.20;;;11.90;;
5333;SDS011;2689;50.954;7.116;2024-03-08T14:28:00;13.60;;;10.40;;
5333;SDS011;2689;50.954;7.116;2024-03-08T14:30:33;14.37;;;10.83;;
5333;SDS011;2689;50.954;7.116;2024-03-08T14:33:03;14.30;;;10.67;;
5333;SDS011;2689;50.954;7.116;2024-03-08T14:35:34;13.40;;;10.80;;
5333;SDS011;2689;50.954;7.116;2024-03-08T14:38:00;20.80;;;11.00;;
5333;SDS011;2689;50.954;7.116;2024-03-08T14:40:27;16.00;;;10.13;;
5333;SDS011;2689;50.954;7.116;2024-03-08T14:42:55;14.90;;;11.07;;
5333;SDS011;2689;50.954;7.116;2024-03-08T14:45:22;13.50;;;10.60;;
5333;SDS011;2689;50.954;7.116;2024-03-08T14:47:52;16.20;;;11.50;;
5333;SDS011;2689;50.954;7.116;2024-03-08T14:50:20;14.80;;;11.03;;
5333;SDS011;2689;50.954;7.116;2024-03-08T14:52:49;15.10;;;10.63;;
5333;SDS011;2689;50.954;7.116;2024-03-08T14:55:15;14.00;;;11.20;;
5333;SDS011;2689;50.954;7.116;2024-03-08T14:57:44;16.93;;;11.50;;
5333;SDS011;2689;50.954;7.116;2024-03-08T15:00:12;13.37;;;10.70;;